createdAt,value
2023-03-01T00:00:35.305Z,102817.56
2023-03-01T00:03:05.174Z,102813.03
2023-03-01T00:05:35.383Z,102822.72
2023-03-01T00:08:05.155Z,102830.53
2023-03-01T00:10:37.640Z,102820.03
2023-03-01T00:13:08.119Z,102818.56
2023-03-01T00:15:42.524Z,102820.63
2023-03-01T00:18:12.542Z,102815.69
2023-03-01T00:20:42.555Z,102824.06
2023-03-01T00:23:12.770Z,102814.00
2023-03-01T00:25:48.375Z,102812.72
2023-03-01T00:28:18.514Z,102808.78
2023-03-01T00:30:48.322Z,102804.69
2023-03-01T00:33:18.176Z,102810.59
2023-03-01T00:35:48.435Z,102798.69
2023-03-01T00:38:18.343Z,102798.06
2023-03-01T00:40:50.719Z,102803.56
2023-03-01T00:43:20.533Z,102799.47
2023-03-01T00:45:50.515Z,102794.53
2023-03-01T00:48:20.242Z,102788.72
2023-03-01T00:50:50.061Z,102787.28
2023-03-01T00:53:19.863Z,102785.00
2023-03-01T00:55:52.316Z,102781.69
2023-03-01T00:58:22.174Z,102775.94
2023-03-01T01:00:52.410Z,102776.31
2023-03-01T01:03:22.257Z,102781.03
2023-03-01T01:05:52.059Z,102782.06
2023-03-01T01:08:22.028Z,102777.91
2023-03-01T01:10:54.384Z,102779.13
2023-03-01T01:13:24.107Z,102775.03
2023-03-01T01:15:54.017Z,102769.22
2023-03-01T01:18:23.780Z,102772.09
2023-03-01T01:20:53.548Z,102768.81
2023-03-01T01:23:23.407Z,102763.03
2023-03-01T01:25:55.842Z,102753.56
2023-03-01T01:28:25.747Z,102745.94
2023-03-01T01:30:55.612Z,102749.00
2023-03-01T01:33:25.339Z,102743.88
2023-03-01T01:35:55.232Z,102737.06
2023-03-01T01:38:25.388Z,102734.59
2023-03-01T01:41:00.444Z,102730.47
2023-03-01T01:43:32.492Z,102729.44
2023-03-01T01:46:05.382Z,102731.72
2023-03-01T01:48:44.196Z,102728.88
2023-03-01T01:51:16.826Z,102730.53
2023-03-01T01:53:49.069Z,102724.97
2023-03-01T01:56:23.103Z,102724.97
2023-03-01T01:58:54.291Z,102722.31
2023-03-01T02:01:24.458Z,102730.31
2023-03-01T02:03:55.274Z,102726.38
2023-03-01T02:06:31.150Z,102733.75
2023-03-01T02:09:04.854Z,102734.16
2023-03-01T02:11:39.005Z,102730.22
2023-03-01T02:14:09.788Z,102735.97
2023-03-01T02:16:39.983Z,102726.69
2023-03-01T02:19:11.469Z,102728.72
2023-03-01T02:21:54.697Z,102715.13
2023-03-01T02:24:30.656Z,102711.84
2023-03-01T02:27:04.411Z,102706.88
2023-03-01T02:29:36.791Z,102707.28
2023-03-01T02:32:09.158Z,102697.81
2023-03-01T02:34:39.081Z,102702.69
2023-03-01T02:37:16.148Z,102703.09
2023-03-01T02:39:50.129Z,102698.13
2023-03-01T02:42:27.374Z,102700.19
2023-03-01T02:45:00.178Z,102697.72
2023-03-01T02:47:30.119Z,102699.72
2023-03-01T02:50:00.128Z,102712.63
2023-03-01T02:52:45.302Z,102714.00
2023-03-01T02:55:17.810Z,102708.69
2023-03-01T02:57:51.816Z,102708.25
2023-03-01T03:00:28.585Z,102713.78
2023-03-01T03:02:58.852Z,102708.81
2023-03-01T03:05:31.145Z,102717.00
2023-03-01T03:08:03.456Z,102711.25
2023-03-01T03:10:37.870Z,102714.25
2023-03-01T03:13:09.683Z,102718.97
2023-03-01T03:15:42.882Z,102713.00
2023-03-01T03:18:14.615Z,102714.66
2023-03-01T03:20:45.989Z,102709.69
2023-03-01T03:23:17.078Z,102707.22
2023-03-01T03:25:46.962Z,102703.72
2023-03-01T03:28:17.012Z,102711.09
2023-03-01T03:30:51.013Z,102710.09
2023-03-01T03:33:20.897Z,102706.78
2023-03-01T03:35:52.623Z,102701.06
2023-03-01T03:38:24.024Z,102693.69
2023-03-01T03:40:56.924Z,102704.00
2023-03-01T03:43:27.630Z,102694.97
2023-03-01T03:46:06.959Z,102696.63
2023-03-01T03:48:38.451Z,102691.28
2023-03-01T03:51:09.049Z,102689.25
2023-03-01T03:53:38.800Z,102693.97
2023-03-01T03:56:09.874Z,102680.00
2023-03-01T03:58:39.892Z,102684.69
2023-03-01T04:01:12.598Z,102682.22
2023-03-01T04:03:42.864Z,102678.09
2023-03-01T04:06:12.821Z,102671.50
2023-03-01T04:08:43.280Z,102668.19
2023-03-01T04:11:25.595Z,102664.91
2023-03-01T04:13:58.041Z,102659.94
2023-03-01T04:16:30.932Z,102658.28
2023-03-01T04:19:01.648Z,102661.16
2023-03-01T04:21:31.460Z,102665.84
2023-03-01T04:24:01.458Z,102666.84
2023-03-01T04:26:31.599Z,102664.38
2023-03-01T04:29:04.129Z,102661.28
2023-03-01T04:31:36.494Z,102661.47
2023-03-01T04:34:06.296Z,102658.16
2023-03-01T04:36:37.117Z,102653.22
2023-03-01T04:39:13.513Z,102662.22
2023-03-01T04:41:44.315Z,102665.25
2023-03-01T04:44:14.182Z,102660.94
2023-03-01T04:46:46.490Z,102675.28
2023-03-01T04:49:17.130Z,102667.47
2023-03-01T04:51:46.925Z,102661.69
2023-03-01T04:54:17.665Z,102661.06
2023-03-01T04:56:47.409Z,102655.09
2023-03-01T04:59:17.159Z,102654.44
2023-03-01T05:01:49.805Z,102647.66
2023-03-01T05:04:19.928Z,102651.34
2023-03-01T05:06:49.796Z,102652.56
2023-03-01T05:09:19.810Z,102649.22
2023-03-01T05:11:51.188Z,102653.31
2023-03-01T05:14:21.146Z,102651.66
2023-03-01T05:16:53.450Z,102648.13
2023-03-01T05:19:24.037Z,102645.88
2023-03-01T05:22:05.951Z,102645.03
2023-03-01T05:24:37.657Z,102644.22
2023-03-01T05:27:07.551Z,102636.03
2023-03-01T05:29:37.473Z,102641.00
2023-03-01T05:32:14.598Z,102634.66
2023-03-01T05:34:45.207Z,102628.69
2023-03-01T05:37:14.961Z,102629.69
2023-03-01T05:39:44.784Z,102631.72
2023-03-01T05:42:15.541Z,102628.25
2023-03-01T05:44:47.633Z,102634.78
2023-03-01T05:47:20.149Z,102632.47
2023-03-01T05:49:51.262Z,102628.34
2023-03-01T05:52:21.037Z,102628.56
2023-03-01T05:54:50.890Z,102634.84
2023-03-01T05:57:21.424Z,102630.56
2023-03-01T05:59:51.222Z,102634.03
2023-03-01T06:02:23.715Z,102641.19
2023-03-01T06:04:53.735Z,102637.91
2023-03-01T06:07:23.587Z,102642.94
2023-03-01T06:09:53.381Z,102648.47
2023-03-01T06:12:23.179Z,102639.84
2023-03-01T06:14:52.985Z,102640.69
2023-03-01T06:17:25.640Z,102632.88
2023-03-01T06:19:55.482Z,102628.75
2023-03-01T06:22:25.356Z,102634.44
2023-03-01T06:24:57.281Z,102620.50
2023-03-01T06:27:29.952Z,102613.50
2023-03-01T06:29:59.740Z,102614.53
2023-03-01T06:32:32.887Z,102619.84
2023-03-01T06:35:02.641Z,102622.88
2023-03-01T06:37:32.390Z,102620.41
2023-03-01T06:40:05.795Z,102621.25
2023-03-01T06:42:35.599Z,102617.56
2023-03-01T06:45:06.048Z,102620.22
2023-03-01T06:47:38.773Z,102619.41
2023-03-01T06:50:09.228Z,102621.25
2023-03-01T06:52:39.038Z,102620.41
2023-03-01T06:55:09.971Z,102627.38
2023-03-01T06:57:40.046Z,102631.06
2023-03-01T07:00:11.557Z,102628.22
2023-03-01T07:02:44.170Z,102630.88
2023-03-01T07:05:13.989Z,102626.19
2023-03-01T07:07:43.821Z,102626.66
2023-03-01T07:10:15.254Z,102625.84
2023-03-01T07:12:45.258Z,102627.47
2023-03-01T07:15:16.273Z,102627.09
2023-03-01T07:17:51.175Z,102624.44
2023-03-01T07:20:23.634Z,102632.31
2023-03-01T07:22:53.522Z,102630.94
2023-03-01T07:25:23.253Z,102624.88
2023-03-01T07:27:54.746Z,102625.13
2023-03-01T07:30:27.126Z,102620.06
2023-03-01T07:33:01.020Z,102612.34
2023-03-01T07:35:32.121Z,102618.78
2023-03-01T07:38:01.863Z,102612.03
2023-03-01T07:40:32.199Z,102611.47
2023-03-01T07:43:02.510Z,102608.88
2023-03-01T07:45:33.095Z,102606.28
2023-03-01T07:48:05.501Z,102611.69
2023-03-01T07:50:35.626Z,102600.44
2023-03-01T07:53:06.046Z,102603.03
2023-03-01T07:55:35.868Z,102608.53
2023-03-01T07:58:05.747Z,102598.06
2023-03-01T08:00:35.488Z,102604.19
2023-03-01T08:03:10.256Z,102600.25
2023-03-01T08:05:40.131Z,102603.03
2023-03-01T08:08:10.088Z,102609.69
2023-03-01T08:10:40.599Z,102603.16
2023-03-01T08:13:10.704Z,102602.56
2023-03-01T08:15:40.579Z,102608.09
2023-03-01T08:18:13.505Z,102604.75
2023-03-01T08:20:43.318Z,102605.16
2023-03-01T08:23:15.377Z,102608.84
2023-03-01T08:25:45.390Z,102597.66
2023-03-01T08:28:15.176Z,102601.75
2023-03-01T08:30:44.954Z,102604.28
2023-03-01T08:33:17.577Z,102604.28
2023-03-01T08:35:47.544Z,102600.34
2023-03-01T08:38:17.694Z,102591.72
2023-03-01T08:40:48.565Z,102585.72
2023-03-01T08:43:18.730Z,102588.00
2023-03-01T08:45:48.551Z,102586.59
2023-03-01T08:48:21.091Z,102587.00
2023-03-01T08:50:50.875Z,102586.63
2023-03-01T08:53:22.928Z,102578.75
2023-03-01T08:55:52.848Z,102580.00
2023-03-01T08:58:22.576Z,102583.06
2023-03-01T09:00:52.371Z,102575.03
2023-03-01T09:03:24.986Z,102573.41
2023-03-01T09:05:55.065Z,102578.34
2023-03-01T09:08:24.992Z,102582.44
2023-03-01T09:10:55.422Z,102577.50
2023-03-01T09:13:26.003Z,102571.72
2023-03-01T09:15:55.771Z,102563.88
2023-03-01T09:18:28.548Z,102554.38
2023-03-01T09:21:08.437Z,102574.94
2023-03-01T09:23:39.993Z,102563.38
2023-03-01T09:26:11.545Z,102561.25
2023-03-01T09:28:43.893Z,102557.09
2023-03-01T09:31:14.007Z,102566.06
2023-03-01T09:33:49.498Z,102556.75
2023-03-01T09:36:21.815Z,102549.03
2023-03-01T09:38:55.724Z,102554.69
2023-03-01T09:41:51.400Z,102539.75
2023-03-01T09:44:40.596Z,102549.78
2023-03-01T09:47:16.528Z,102541.16
2023-03-01T09:49:56.213Z,102535.66
2023-03-01T09:52:33.706Z,102533.22
2023-03-01T09:55:03.500Z,102529.56
2023-03-01T09:57:40.723Z,102525.69
2023-03-01T10:00:33.832Z,102525.13
2023-03-01T10:03:13.929Z,102534.66
2023-03-01T10:05:56.893Z,102528.44
2023-03-01T10:08:36.989Z,102522.41
2023-03-01T10:11:07.691Z,102523.38
2023-03-01T10:13:47.568Z,102524.91
2023-03-01T10:16:22.013Z,102523.88
2023-03-01T10:18:59.697Z,102519.09
2023-03-01T10:21:33.868Z,102512.69
2023-03-01T10:24:14.303Z,102495.81
2023-03-01T10:26:52.230Z,102503.09
2023-03-01T10:29:27.919Z,102494.97
2023-03-01T10:31:58.820Z,102501.88
2023-03-01T10:34:34.470Z,102504.22
2023-03-01T10:37:15.547Z,102486.13
2023-03-01T10:40:10.232Z,102486.34
2023-03-01T10:42:43.162Z,102486.41
2023-03-01T10:45:30.879Z,102483.59
2023-03-01T10:48:16.539Z,102471.28
2023-03-01T10:50:49.154Z,102457.41
2023-03-01T10:53:33.377Z,102452.81
2023-03-01T10:56:05.811Z,102440.09
2023-03-01T10:58:37.112Z,102444.59
2023-03-01T11:01:09.222Z,102452.53
2023-03-01T11:03:52.421Z,102447.78
2023-03-01T11:06:27.425Z,102449.41
2023-03-01T11:09:00.024Z,102442.13
2023-03-01T11:11:37.652Z,102446.47
2023-03-01T11:14:24.983Z,102429.47
2023-03-01T11:17:04.778Z,102431.09
2023-03-01T11:19:35.076Z,102432.97
2023-03-01T11:22:10.042Z,102420.94
2023-03-01T11:24:46.192Z,102407.19
2023-03-01T11:27:22.276Z,102410.63
2023-03-01T11:29:58.925Z,102419.91
2023-03-01T11:32:34.093Z,102407.59
2023-03-01T11:35:08.418Z,102416.94
2023-03-01T11:37:42.727Z,102414.16
2023-03-01T11:40:26.512Z,102407.59
2023-03-01T11:43:09.475Z,102414.16
2023-03-01T11:45:51.531Z,102406.13
2023-03-01T11:48:50.178Z,102418.84
2023-03-01T11:51:28.559Z,102420.00
2023-03-01T11:54:17.502Z,102413.34
2023-03-01T11:56:54.586Z,102418.22
2023-03-01T12:00:09.030Z,102419.03
2023-03-01T12:03:11.466Z,102421.00
2023-03-01T12:06:16.993Z,102408.13
2023-03-01T12:08:55.494Z,102399.00
2023-03-01T12:11:41.536Z,102400.91
2023-03-01T12:14:34.863Z,102397.19
2023-03-01T12:17:28.192Z,102388.38
2023-03-01T12:20:15.348Z,102381.81
2023-03-01T12:22:56.907Z,102384.25
2023-03-01T12:25:38.631Z,102378.91
2023-03-01T12:28:40.399Z,102373.94
2023-03-01T12:31:44.527Z,102358.34
2023-03-01T12:34:38.723Z,102362.63
2023-03-01T12:37:30.740Z,102347.03
2023-03-01T12:40:27.793Z,102349.06
2023-03-01T12:43:10.383Z,102350.69
2023-03-01T12:45:54.818Z,102345.91
2023-03-01T12:48:41.544Z,102337.06
2023-03-01T12:51:15.604Z,102333.63
2023-03-01T12:53:50.859Z,102332.78
2023-03-01T12:56:24.160Z,102335.78
2023-03-01T12:59:03.648Z,102333.06
2023-03-01T13:01:43.365Z,102330.91
2023-03-01T13:04:25.003Z,102332.38
2023-03-01T13:07:05.609Z,102326.34
2023-03-01T13:09:44.616Z,102330.06
2023-03-01T13:12:44.418Z,102323.59
2023-03-01T13:15:30.610Z,102322.59
2023-03-01T13:18:02.467Z,102330.69
2023-03-01T13:20:48.994Z,102313.34
2023-03-01T13:23:29.960Z,102316.56
2023-03-01T13:26:16.243Z,102304.75
2023-03-01T13:28:57.960Z,102305.56
2023-03-01T13:32:08.218Z,102305.25
2023-03-01T13:35:01.119Z,102298.75
2023-03-01T13:37:41.460Z,102292.91
2023-03-01T13:40:41.135Z,102291.59
2023-03-01T13:43:33.489Z,102287.50
2023-03-01T13:46:04.842Z,102282.94
2023-03-01T13:48:35.587Z,102281.06
2023-03-01T13:51:07.826Z,102280.47
2023-03-01T13:53:45.083Z,102275.06
2023-03-01T13:56:18.652Z,102271.88
2023-03-01T13:58:52.729Z,102260.00
2023-03-01T14:01:28.992Z,102252.22
2023-03-01T14:03:59.688Z,102259.59
2023-03-01T14:06:32.455Z,102256.28
2023-03-01T14:09:18.640Z,102261.41
2023-03-01T14:12:10.304Z,102250.09
2023-03-01T14:14:49.480Z,102251.22
2023-03-01T14:17:41.927Z,102241.81
2023-03-01T14:20:18.410Z,102245.94
2023-03-01T14:22:50.053Z,102234.94
2023-03-01T14:25:31.163Z,102231.22
2023-03-01T14:28:06.244Z,102239.31
2023-03-01T14:30:40.205Z,102229.56
2023-03-01T14:33:23.182Z,102227.06
2023-03-01T14:35:59.528Z,102225.81
2023-03-01T14:38:38.637Z,102226.94
2023-03-01T14:41:16.501Z,102215.63
2023-03-01T14:43:50.756Z,102213.50
2023-03-01T14:46:25.269Z,102220.03
2023-03-01T14:48:56.954Z,102216.28
2023-03-01T14:51:27.234Z,102200.09
2023-03-01T14:53:57.750Z,102206.03
2023-03-01T14:56:30.685Z,102206.84
2023-03-01T14:59:02.702Z,102208.38
2023-03-01T15:01:32.778Z,102207.03
2023-03-01T15:04:03.639Z,102204.41
2023-03-01T15:06:33.937Z,102198.47
2023-03-01T15:09:04.097Z,102188.75
2023-03-01T15:11:38.125Z,102196.59
2023-03-01T15:14:32.104Z,102191.97
2023-03-01T15:17:02.011Z,102183.06
2023-03-01T15:19:32.645Z,102183.84
2023-03-01T15:22:13.158Z,102183.91
2023-03-01T15:24:43.103Z,102165.75
2023-03-01T15:27:22.960Z,102173.56
2023-03-01T15:29:54.549Z,102167.13
2023-03-01T15:32:31.564Z,102166.84
2023-03-01T15:35:01.960Z,102163.09
2023-03-01T15:37:48.897Z,102163.56
2023-03-01T15:40:32.746Z,102159.47
2023-03-01T15:43:07.429Z,102163.22
2023-03-01T15:45:39.872Z,102160.06
2023-03-01T15:48:22.158Z,102159.25
2023-03-01T15:50:59.235Z,102161.69
2023-03-01T15:53:32.196Z,102160.88
2023-03-01T15:56:01.976Z,102161.34
2023-03-01T15:58:34.429Z,102163.22
2023-03-01T16:01:04.620Z,102163.19
2023-03-01T16:03:34.436Z,102164.25
2023-03-01T16:06:04.219Z,102168.03
2023-03-01T16:08:33.994Z,102163.66
2023-03-01T16:11:05.928Z,102163.66
2023-03-01T16:13:38.515Z,102158.25
2023-03-01T16:16:09.111Z,102166.38
2023-03-01T16:18:39.313Z,102154.44
2023-03-01T16:21:09.408Z,102157.16
2023-03-01T16:23:39.242Z,102163.03
2023-03-01T16:26:09.570Z,102166.25
2023-03-01T16:28:42.012Z,102162.19
2023-03-01T16:31:12.090Z,102150.53
2023-03-01T16:33:42.347Z,102151.03
2023-03-01T16:36:14.826Z,102156.69
2023-03-01T16:38:44.906Z,102150.97
2023-03-01T16:41:17.026Z,102150.94
2023-03-01T16:43:50.557Z,102151.47
2023-03-01T16:46:22.881Z,102155.53
2023-03-01T16:48:53.552Z,102160.06
2023-03-01T16:51:25.047Z,102168.66
2023-03-01T16:53:55.243Z,102158.59
2023-03-01T16:56:25.125Z,102162.66
2023-03-01T16:59:01.766Z,102172.59
2023-03-01T17:01:40.627Z,102155.50
2023-03-01T17:04:10.615Z,102164.41
2023-03-01T17:06:40.631Z,102173.00
2023-03-01T17:09:10.561Z,102162.41
2023-03-01T17:11:40.435Z,102168.81
2023-03-01T17:14:12.866Z,102169.84
2023-03-01T17:16:42.934Z,102164.97
2023-03-01T17:19:13.845Z,102163.81
2023-03-01T17:21:43.669Z,102164.06
2023-03-01T17:24:13.773Z,102171.28
2023-03-01T17:26:44.440Z,102168.00
2023-03-01T17:29:18.998Z,102169.59
2023-03-01T17:31:49.425Z,102175.25
2023-03-01T17:34:19.822Z,102170.03
2023-03-01T17:36:50.821Z,102168.41
2023-03-01T17:39:25.775Z,102177.56
2023-03-01T17:41:55.915Z,102189.94
2023-03-01T17:44:28.915Z,102189.22
2023-03-01T17:46:58.689Z,102186.28
2023-03-01T17:49:29.150Z,102183.75
2023-03-01T17:51:59.537Z,102184.03
2023-03-01T17:54:29.565Z,102184.22
2023-03-01T17:56:59.649Z,102185.19
2023-03-01T17:59:34.173Z,102178.69
2023-03-01T18:02:04.034Z,102189.41
2023-03-01T18:04:34.619Z,102182.09
2023-03-01T18:07:04.408Z,102179.56
2023-03-01T18:09:34.290Z,102190.50
2023-03-01T18:12:05.022Z,102187.22
2023-03-01T18:14:37.537Z,102190.34
2023-03-01T18:17:12.007Z,102190.34
2023-03-01T18:19:45.272Z,102192.13
2023-03-01T18:22:15.309Z,102185.59
2023-03-01T18:24:46.584Z,102188.56
2023-03-01T18:27:16.383Z,102183.09
2023-03-01T18:29:48.882Z,102182.75
2023-03-01T18:32:18.821Z,102182.69
2023-03-01T18:34:48.549Z,102184.22
2023-03-01T18:37:21.011Z,102182.50
2023-03-01T18:39:54.046Z,102170.63
2023-03-01T18:42:24.541Z,102174.84
2023-03-01T18:45:00.108Z,102166.94
2023-03-01T18:47:30.103Z,102167.69
2023-03-01T18:49:59.975Z,102171.91
2023-03-01T18:52:29.910Z,102159.97
2023-03-01T18:55:00.313Z,102157.69
2023-03-01T18:57:30.898Z,102162.50
2023-03-01T19:00:04.260Z,102161.69
2023-03-01T19:02:34.218Z,102155.50
2023-03-01T19:05:07.193Z,102154.94
2023-03-01T19:07:37.512Z,102151.09
2023-03-01T19:10:08.361Z,102153.78
2023-03-01T19:12:38.579Z,102150.53
2023-03-01T19:15:11.826Z,102146.75
2023-03-01T19:17:41.692Z,102161.75
2023-03-01T19:20:13.112Z,102155.25
2023-03-01T19:22:42.949Z,102156.53
2023-03-01T19:25:13.309Z,102154.56
2023-03-01T19:27:43.230Z,102160.41
2023-03-01T19:30:16.927Z,102160.91
2023-03-01T19:32:46.844Z,102156.03
2023-03-01T19:35:16.802Z,102147.38
2023-03-01T19:37:46.638Z,102151.81
2023-03-01T19:40:16.674Z,102159.56
2023-03-01T19:42:46.492Z,102153.03
2023-03-01T19:45:25.267Z,102151.88
2023-03-01T19:48:01.746Z,102147.78
2023-03-01T19:50:31.845Z,102147.47
2023-03-01T19:53:01.779Z,102151.69
2023-03-01T19:55:33.548Z,102145.16
2023-03-01T19:58:03.377Z,102147.28
2023-03-01T20:00:36.141Z,102143.44
2023-03-01T20:03:06.475Z,102139.56
2023-03-01T20:05:37.682Z,102128.00
2023-03-01T20:08:09.649Z,102136.31
2023-03-01T20:10:39.568Z,102136.81
2023-03-01T20:13:09.395Z,102144.25
2023-03-01T20:15:44.113Z,102135.63
2023-03-01T20:18:15.109Z,102144.75
2023-03-01T20:20:45.376Z,102143.13
2023-03-01T20:23:15.176Z,102148.50
2023-03-01T20:25:45.004Z,102145.25
2023-03-01T20:28:15.178Z,102155.50
2023-03-01T20:30:49.379Z,102147.44
2023-03-01T20:33:19.138Z,102149.06
2023-03-01T20:35:49.089Z,102146.38
2023-03-01T20:38:19.057Z,102147.94
2023-03-01T20:40:48.809Z,102148.50
2023-03-01T20:43:18.794Z,102146.50
2023-03-01T20:45:51.346Z,102151.06
2023-03-01T20:48:21.105Z,102164.50
2023-03-01T20:50:55.004Z,102163.94
2023-03-01T20:53:24.831Z,102162.75
2023-03-01T20:55:54.658Z,102154.94
2023-03-01T20:58:24.518Z,102164.50
2023-03-01T21:00:57.253Z,102162.31
2023-03-01T21:03:27.486Z,102155.19
2023-03-01T21:05:59.322Z,102155.66
2023-03-01T21:08:29.353Z,102152.06
2023-03-01T21:11:00.223Z,102152.75
2023-03-01T21:13:31.018Z,102158.03
2023-03-01T21:16:07.972Z,102145.28
2023-03-01T21:18:38.616Z,102142.84
2023-03-01T21:21:10.882Z,102144.09
2023-03-01T21:23:42.572Z,102148.34
2023-03-01T21:26:15.100Z,102139.69
2023-03-01T21:28:47.003Z,102142.25
2023-03-01T21:31:22.361Z,102140.63
2023-03-01T21:33:53.764Z,102133.03
2023-03-01T21:36:25.649Z,102135.72
2023-03-01T21:38:56.130Z,102132.47
2023-03-01T21:41:27.790Z,102133.75
2023-03-01T21:44:00.948Z,102144.13
2023-03-01T21:46:36.864Z,102130.56
2023-03-01T21:49:07.829Z,102127.31
2023-03-01T21:51:40.270Z,102130.22
2023-03-01T21:54:10.951Z,102134.41
2023-03-01T21:56:41.160Z,102128.22
2023-03-01T21:59:16.742Z,102133.59
2023-03-01T22:01:51.376Z,102128.47
2023-03-01T22:04:24.855Z,102132.34
2023-03-01T22:06:55.120Z,102130.22
2023-03-01T22:09:28.572Z,102134.31
2023-03-01T22:12:02.709Z,102142.97
2023-03-01T22:14:35.152Z,102142.13
2023-03-01T22:17:09.003Z,102135.94
2023-03-01T22:19:38.815Z,102139.66
2023-03-01T22:22:08.512Z,102140.50
2023-03-01T22:24:38.342Z,102133.97
2023-03-01T22:27:08.599Z,102140.59
2023-03-01T22:29:39.077Z,102139.44
2023-03-01T22:32:11.703Z,102144.69
2023-03-01T22:34:41.656Z,102149.09
2023-03-01T22:37:11.432Z,102134.28
2023-03-01T22:39:41.157Z,102133.72
2023-03-01T22:42:11.095Z,102131.47
2023-03-01T22:44:41.975Z,102131.94
2023-03-01T22:47:14.603Z,102114.66
2023-03-01T22:49:44.571Z,102129.13
2023-03-01T22:52:14.515Z,102124.22
2023-03-01T22:54:44.599Z,102114.56
2023-03-01T22:57:14.545Z,102123.63
2023-03-01T22:59:44.329Z,102125.38
2023-03-01T23:02:17.335Z,102119.22
2023-03-01T23:04:48.553Z,102120.22
2023-03-01T23:07:18.425Z,102111.03
2023-03-01T23:09:50.670Z,102113.00
2023-03-01T23:12:21.086Z,102115.28
2023-03-01T23:14:50.845Z,102119.72
2023-03-01T23:17:23.320Z,102118.88
2023-03-01T23:19:53.597Z,102117.03
2023-03-01T23:22:23.691Z,102114.81
2023-03-01T23:24:53.547Z,102116.44
2023-03-01T23:27:23.316Z,102116.44
2023-03-01T23:29:55.324Z,102114.81
2023-03-01T23:32:27.966Z,102115.03
2023-03-01T23:34:58.042Z,102121.22
2023-03-01T23:37:32.674Z,102125.75
2023-03-01T23:40:06.188Z,102116.31
2023-03-01T23:42:36.334Z,102127.63
2023-03-01T23:45:08.058Z,102131.13
2023-03-01T23:47:40.631Z,102121.78
2023-03-01T23:50:11.373Z,102121.13
2023-03-01T23:52:42.795Z,102121.69
2023-03-01T23:55:15.535Z,102126.84
2023-03-01T23:57:45.785Z,102124.75
